createdAt,value
2019-03-28T00:01:14.121Z,4.73
2019-03-28T00:03:44.265Z,5.03
2019-03-28T00:06:11.555Z,4.63
2019-03-28T00:08:38.809Z,5.67
2019-03-28T00:11:06.311Z,4.60
2019-03-28T00:13:33.834Z,4.93
2019-03-28T00:16:01.207Z,4.80
2019-03-28T00:18:28.730Z,4.40
2019-03-28T00:20:56.407Z,4.30
2019-03-28T00:23:33.091Z,4.90
2019-03-28T00:26:00.397Z,4.83
2019-03-28T00:28:27.884Z,5.10
2019-03-28T00:30:55.170Z,6.00
2019-03-28T00:33:22.481Z,5.47
2019-03-28T00:35:50.257Z,4.90
2019-03-28T00:38:17.593Z,5.53
2019-03-28T00:40:44.971Z,5.23
2019-03-28T00:43:12.253Z,5.60
2019-03-28T00:45:39.529Z,4.83
2019-03-28T00:48:07.027Z,5.40
2019-03-28T00:50:34.485Z,6.07
2019-03-28T00:53:02.525Z,5.30
2019-03-28T00:55:29.833Z,5.00
2019-03-28T00:57:57.347Z,5.63
2019-03-28T01:00:24.749Z,5.10
2019-03-28T01:02:52.155Z,5.73
2019-03-28T01:05:19.426Z,5.43
2019-03-28T01:07:49.621Z,5.87
2019-03-28T01:10:16.921Z,6.70
2019-03-28T01:12:44.226Z,5.70
2019-03-28T01:15:11.514Z,6.00
2019-03-28T01:17:38.931Z,5.90
2019-03-28T01:20:06.851Z,5.80
2019-03-28T01:22:34.169Z,6.50
2019-03-28T01:25:01.888Z,7.00
2019-03-28T01:27:29.415Z,6.20
2019-03-28T01:29:57.279Z,5.30
2019-03-28T01:32:24.685Z,5.63
2019-03-28T01:34:51.995Z,5.60
2019-03-28T01:37:19.388Z,4.83
2019-03-28T01:39:46.767Z,5.60
2019-03-28T01:42:14.177Z,6.17
2019-03-28T01:44:41.536Z,5.10
2019-03-28T01:47:08.843Z,5.93
2019-03-28T01:49:36.118Z,5.50
2019-03-28T01:52:04.358Z,5.60
2019-03-28T01:54:32.080Z,6.03
2019-03-28T01:57:10.248Z,5.53
2019-03-28T01:59:28.545Z,6.03
2019-03-28T02:01:55.903Z,6.00
2019-03-28T02:04:23.631Z,6.03
2019-03-28T02:06:50.924Z,6.27
2019-03-28T02:09:18.235Z,5.97
2019-03-28T02:11:45.646Z,6.40
2019-03-28T02:14:12.908Z,6.63
2019-03-28T02:16:40.280Z,6.03
2019-03-28T02:19:07.674Z,6.23
2019-03-28T02:21:35.920Z,6.73
2019-03-28T02:24:03.309Z,6.60
2019-03-28T02:26:30.598Z,6.70
2019-03-28T02:28:58.062Z,6.70
2019-03-28T02:31:25.417Z,6.27
2019-03-28T02:33:52.685Z,5.60
2019-03-28T02:36:19.957Z,6.47
2019-03-28T02:38:47.353Z,6.50
2019-03-28T02:41:15.044Z,5.87
2019-03-28T02:43:42.331Z,6.40
2019-03-28T02:46:09.619Z,6.53
2019-03-28T02:48:36.901Z,6.50
2019-03-28T02:51:04.241Z,6.83
2019-03-28T02:53:33.402Z,6.60
2019-03-28T02:56:00.700Z,6.50
2019-03-28T02:58:27.975Z,7.13
2019-03-28T03:00:55.226Z,6.90
2019-03-28T03:03:22.607Z,6.23
2019-03-28T03:05:49.920Z,6.87
2019-03-28T03:08:17.281Z,7.43
2019-03-28T03:10:44.626Z,7.07
2019-03-28T03:13:11.910Z,7.07
2019-03-28T03:15:39.702Z,8.13
2019-03-28T03:18:08.888Z,7.20
2019-03-28T03:20:36.150Z,6.60
2019-03-28T03:23:05.614Z,7.13
2019-03-28T03:25:32.920Z,7.03
2019-03-28T03:28:00.254Z,6.97
2019-03-28T03:30:27.573Z,7.30
2019-03-28T03:32:55.100Z,7.47
2019-03-28T03:35:22.556Z,7.33
2019-03-28T03:37:49.943Z,6.60
2019-03-28T03:40:17.540Z,8.33
2019-03-28T03:42:44.960Z,7.70
2019-03-28T03:45:12.589Z,7.33
2019-03-28T03:47:43.608Z,7.90
2019-03-28T03:50:16.340Z,7.87
2019-03-28T03:52:43.596Z,6.97
2019-03-28T03:55:10.977Z,7.27
2019-03-28T03:57:38.359Z,7.20
2019-03-28T04:00:06.184Z,8.33
2019-03-28T04:02:33.680Z,7.80
2019-03-28T04:05:03.738Z,7.50
2019-03-28T04:07:30.995Z,8.53
2019-03-28T04:09:58.285Z,8.33
2019-03-28T04:12:28.718Z,8.13
2019-03-28T04:14:56.014Z,8.63
2019-03-28T04:17:23.321Z,7.33
2019-03-28T04:19:50.639Z,7.57
2019-03-28T04:22:17.911Z,7.90
2019-03-28T04:24:48.570Z,7.67
2019-03-28T04:27:15.982Z,8.57
2019-03-28T04:29:43.366Z,8.10
2019-03-28T04:32:10.841Z,8.27
2019-03-28T04:34:38.125Z,8.20
2019-03-28T04:37:06.514Z,8.43
2019-03-28T04:39:34.100Z,8.47
2019-03-28T04:42:01.360Z,8.37
2019-03-28T04:44:28.743Z,8.00
2019-03-28T04:46:56.034Z,7.90
2019-03-28T04:49:23.290Z,8.73
2019-03-28T04:51:51.774Z,8.77
2019-03-28T04:54:19.045Z,8.50
2019-03-28T04:56:46.427Z,9.10
2019-03-28T04:59:13.777Z,8.37
2019-03-28T05:01:41.155Z,8.43
2019-03-28T05:04:10.469Z,8.53
2019-03-28T05:06:38.214Z,8.50
2019-03-28T05:09:05.706Z,8.77
2019-03-28T05:11:36.642Z,8.90
2019-03-28T05:14:03.921Z,8.47
2019-03-28T05:16:31.197Z,8.37
2019-03-28T05:18:58.558Z,8.30
2019-03-28T05:21:25.970Z,8.53
2019-03-28T05:23:53.772Z,9.20
2019-03-28T05:26:21.256Z,10.00
2019-03-28T05:28:57.454Z,10.93
2019-03-28T05:31:17.843Z,9.93
2019-03-28T05:33:45.111Z,11.23
2019-03-28T05:36:12.524Z,9.30
2019-03-28T05:38:39.791Z,10.00
2019-03-28T05:41:07.182Z,10.40
2019-03-28T05:43:37.392Z,9.60
2019-03-28T05:46:05.024Z,9.83
2019-03-28T05:48:32.666Z,9.73
2019-03-28T05:51:00.274Z,9.20
2019-03-28T05:53:27.547Z,10.20
2019-03-28T05:55:54.936Z,9.43
2019-03-28T05:58:22.468Z,9.93
2019-03-28T06:00:51.428Z,10.00
2019-03-28T06:03:18.862Z,9.90
2019-03-28T06:05:46.320Z,11.40
2019-03-28T06:08:13.709Z,9.97
2019-03-28T06:10:43.207Z,10.23
2019-03-28T06:13:10.460Z,10.97
2019-03-28T06:15:40.817Z,11.47
2019-03-28T06:18:07.515Z,10.10
2019-03-28T06:20:35.070Z,9.67
2019-03-28T06:23:02.331Z,10.23
2019-03-28T06:25:29.866Z,9.60
2019-03-28T06:27:57.166Z,10.00
2019-03-28T06:30:25.202Z,10.20
2019-03-28T06:32:52.570Z,9.77
2019-03-28T06:35:21.916Z,10.53
2019-03-28T06:37:59.512Z,10.80
2019-03-28T06:40:22.818Z,11.10
2019-03-28T06:42:52.437Z,10.00
2019-03-28T06:45:19.998Z,10.43
2019-03-28T06:47:47.304Z,10.67
2019-03-28T06:50:14.700Z,10.87
2019-03-28T06:52:42.258Z,11.60
2019-03-28T06:55:13.832Z,11.33
2019-03-28T06:57:41.219Z,11.97
2019-03-28T07:00:09.430Z,13.27
2019-03-28T07:02:36.748Z,13.50
2019-03-28T07:05:04.285Z,13.40
2019-03-28T07:07:36.372Z,14.27
2019-03-28T07:10:04.218Z,14.97
2019-03-28T07:12:31.616Z,15.50
2019-03-28T07:14:59.750Z,16.00
2019-03-28T07:17:27.365Z,16.23
2019-03-28T07:19:54.845Z,17.13
2019-03-28T07:22:22.255Z,15.43
2019-03-28T07:24:49.648Z,16.10
2019-03-28T07:27:19.396Z,15.90
2019-03-28T07:29:51.025Z,16.03
2019-03-28T07:32:15.995Z,16.47
2019-03-28T07:34:43.516Z,16.13
2019-03-28T07:37:10.818Z,16.60
2019-03-28T07:39:38.153Z,17.47
2019-03-28T07:42:08.374Z,17.23
2019-03-28T07:44:37.605Z,17.60
2019-03-28T07:47:05.295Z,16.57
2019-03-28T07:49:33.121Z,17.90
2019-03-28T07:52:01.484Z,17.60
2019-03-28T07:54:29.696Z,18.53
2019-03-28T07:56:57.063Z,21.80
2019-03-28T07:59:24.458Z,20.90
2019-03-28T08:01:52.297Z,19.07
2019-03-28T08:04:19.657Z,18.63
2019-03-28T08:06:50.200Z,19.80
2019-03-28T08:09:17.625Z,20.53
2019-03-28T08:11:49.145Z,20.17
2019-03-28T08:14:16.532Z,21.17
2019-03-28T08:16:44.105Z,19.37
2019-03-28T08:19:11.713Z,20.50
2019-03-28T08:21:38.971Z,21.77
2019-03-28T08:24:06.485Z,21.73
2019-03-28T08:26:33.809Z,21.00
2019-03-28T08:29:01.336Z,21.20
2019-03-28T08:31:33.423Z,21.50
2019-03-28T08:34:01.956Z,20.87
2019-03-28T08:36:29.389Z,21.90
2019-03-28T08:38:56.783Z,22.47
2019-03-28T08:41:24.113Z,21.83
2019-03-28T08:43:51.461Z,21.57
2019-03-28T08:46:19.359Z,19.83
2019-03-28T08:48:49.045Z,20.30
2019-03-28T08:51:19.497Z,21.00
2019-03-28T08:53:46.901Z,20.60
2019-03-28T08:56:16.110Z,19.03
2019-03-28T08:58:43.669Z,19.50
2019-03-28T09:01:11.115Z,20.17
2019-03-28T09:03:42.538Z,17.40
2019-03-28T09:06:09.941Z,17.33
2019-03-28T09:08:37.314Z,17.60
2019-03-28T09:11:05.913Z,18.13
2019-03-28T09:13:33.619Z,17.40
2019-03-28T09:16:00.927Z,14.57
2019-03-28T09:18:32.915Z,15.43
2019-03-28T09:21:00.614Z,19.07
2019-03-28T09:23:28.479Z,15.10
2019-03-28T09:25:56.031Z,16.10
2019-03-28T09:28:23.543Z,14.37
2019-03-28T09:30:51.102Z,13.13
2019-03-28T09:33:18.405Z,12.20
2019-03-28T09:35:46.288Z,12.67
2019-03-28T09:38:14.754Z,11.83
2019-03-28T09:40:42.206Z,11.83
2019-03-28T09:43:09.531Z,12.30
2019-03-28T09:45:36.914Z,12.23
2019-03-28T09:48:04.781Z,11.07
2019-03-28T09:50:32.336Z,11.70
2019-03-28T09:53:00.672Z,13.33
2019-03-28T09:55:28.319Z,12.93
2019-03-28T09:57:55.738Z,13.60
2019-03-28T10:00:27.203Z,10.80
2019-03-28T10:02:55.157Z,8.70
2019-03-28T10:05:25.122Z,8.60
2019-03-28T10:07:53.397Z,6.93
2019-03-28T10:10:20.821Z,7.13
2019-03-28T10:12:48.840Z,6.50
2019-03-28T10:15:16.261Z,7.30
2019-03-28T10:17:43.571Z,8.10
2019-03-28T10:20:11.143Z,9.40
2019-03-28T10:22:38.447Z,9.43
2019-03-28T10:25:06.517Z,11.60
2019-03-28T10:27:34.515Z,8.20
2019-03-28T10:30:06.622Z,9.00
2019-03-28T10:32:34.129Z,10.47
2019-03-28T10:35:01.880Z,8.20
2019-03-28T10:37:29.275Z,8.10
2019-03-28T10:39:59.820Z,8.07
2019-03-28T10:42:27.335Z,7.17
2019-03-28T10:44:54.757Z,6.60
2019-03-28T10:47:25.161Z,6.40
2019-03-28T10:49:52.901Z,7.93
2019-03-28T10:52:23.540Z,9.10
2019-03-28T10:55:02.431Z,11.40
2019-03-28T10:57:32.234Z,8.27
2019-03-28T11:00:00.804Z,9.90
2019-03-28T11:02:28.962Z,7.67
2019-03-28T11:04:56.849Z,6.27
2019-03-28T11:07:24.846Z,8.23
2019-03-28T11:09:53.539Z,7.47
2019-03-28T11:12:21.023Z,5.20
2019-03-28T11:14:48.591Z,5.67
2019-03-28T11:17:18.314Z,5.40
2019-03-28T11:19:48.054Z,5.87
2019-03-28T11:22:16.331Z,4.83
2019-03-28T11:24:46.306Z,5.53
2019-03-28T11:27:13.017Z,5.77
2019-03-28T11:29:42.807Z,7.47
2019-03-28T11:32:13.102Z,7.00
2019-03-28T11:34:40.885Z,7.50
2019-03-28T11:37:24.928Z,7.80
2019-03-28T11:39:40.025Z,7.33
2019-03-28T11:42:07.412Z,6.97
2019-03-28T11:44:39.359Z,6.90
2019-03-28T11:47:06.727Z,5.23
2019-03-28T11:49:34.581Z,5.90
2019-03-28T11:52:02.336Z,5.33
2019-03-28T11:54:29.869Z,6.77
2019-03-28T11:56:57.305Z,7.73
2019-03-28T11:59:24.759Z,6.23
2019-03-28T12:01:59.871Z,8.60
2019-03-28T12:04:21.568Z,9.50
2019-03-28T12:06:49.184Z,10.07
2019-03-28T12:09:17.825Z,10.80
2019-03-28T12:11:45.254Z,8.80
2019-03-28T12:14:12.672Z,8.43
2019-03-28T12:16:44.961Z,8.40
2019-03-28T12:19:17.794Z,10.63
2019-03-28T12:21:44.944Z,10.47
2019-03-28T12:24:16.059Z,9.40
2019-03-28T12:26:43.455Z,9.53
2019-03-28T12:29:10.913Z,10.00
2019-03-28T12:31:40.907Z,11.77
2019-03-28T12:34:08.330Z,11.70
2019-03-28T12:36:35.942Z,10.93
2019-03-28T12:39:04.388Z,10.07
2019-03-28T12:41:32.250Z,10.30
2019-03-28T12:43:59.642Z,10.80
2019-03-28T12:46:27.207Z,10.10
2019-03-28T12:48:54.836Z,10.27
2019-03-28T12:51:22.438Z,11.20
2019-03-28T12:53:49.746Z,10.90
2019-03-28T12:56:17.124Z,10.30
2019-03-28T12:58:45.291Z,11.07
2019-03-28T13:01:16.859Z,10.63
2019-03-28T13:03:45.712Z,10.57
2019-03-28T13:06:14.939Z,10.30
2019-03-28T13:08:42.373Z,10.20
2019-03-28T13:11:10.356Z,9.77
2019-03-28T13:13:39.556Z,8.83
2019-03-28T13:16:07.066Z,8.70
2019-03-28T13:18:37.853Z,9.00
2019-03-28T13:21:13.399Z,8.90
2019-03-28T13:23:34.708Z,6.60
2019-03-28T13:26:04.783Z,6.00
2019-03-28T13:28:32.649Z,7.03
2019-03-28T13:30:59.963Z,7.00
2019-03-28T13:33:32.477Z,6.80
2019-03-28T13:35:59.893Z,7.03
2019-03-28T13:38:27.730Z,6.10
2019-03-28T13:40:55.490Z,6.77
2019-03-28T13:43:23.012Z,6.30
2019-03-28T13:45:51.750Z,5.50
2019-03-28T13:48:19.294Z,6.40
2019-03-28T13:50:48.084Z,6.73
2019-03-28T13:53:15.755Z,7.40
2019-03-28T13:55:43.394Z,7.23
2019-03-28T13:58:13.805Z,8.80
2019-03-28T14:00:43.081Z,6.10
2019-03-28T14:03:13.308Z,5.60
2019-03-28T14:05:41.946Z,5.40
2019-03-28T14:08:09.262Z,6.00
2019-03-28T14:10:36.834Z,6.43
2019-03-28T14:13:04.110Z,4.90
2019-03-28T14:15:37.520Z,5.37
2019-03-28T14:18:23.511Z,4.53
2019-03-28T14:20:50.847Z,4.37
2019-03-28T14:23:18.625Z,4.43
2019-03-28T14:25:46.134Z,4.30
2019-03-28T14:28:13.436Z,4.73
2019-03-28T14:30:41.102Z,5.20
2019-03-28T14:33:11.529Z,6.17
2019-03-28T14:35:38.208Z,8.80
2019-03-28T14:38:05.718Z,7.33
2019-03-28T14:40:33.903Z,7.50
2019-03-28T14:43:01.384Z,6.33
2019-03-28T14:45:28.775Z,5.30
2019-03-28T14:47:56.187Z,4.90
2019-03-28T14:50:34.364Z,6.10
2019-03-28T14:53:08.996Z,5.90
2019-03-28T14:55:36.426Z,5.80
2019-03-28T14:58:04.498Z,6.20
2019-03-28T15:00:58.198Z,7.10
2019-03-28T15:03:27.429Z,7.13
2019-03-28T15:05:55.241Z,6.20
2019-03-28T15:08:23.510Z,6.43
2019-03-28T15:10:51.327Z,5.90
2019-03-28T15:13:18.627Z,5.20
2019-03-28T15:15:46.006Z,6.37
2019-03-28T15:18:13.677Z,6.77
2019-03-28T15:20:41.735Z,7.33
2019-03-28T15:23:09.025Z,7.57
2019-03-28T15:25:36.575Z,8.00
2019-03-28T15:28:06.768Z,7.27
2019-03-28T15:30:34.518Z,5.80
2019-03-28T15:33:03.501Z,5.60
2019-03-28T15:35:31.030Z,5.83
2019-03-28T15:38:10.103Z,6.07
2019-03-28T15:40:39.319Z,6.37
2019-03-28T15:43:06.874Z,7.07
2019-03-28T15:45:38.393Z,7.03
2019-03-28T15:48:06.192Z,6.40
2019-03-28T15:50:34.995Z,5.80
2019-03-28T15:53:11.551Z,5.27
2019-03-28T15:55:39.264Z,5.07
2019-03-28T15:58:06.769Z,6.77
2019-03-28T16:00:39.300Z,6.23
2019-03-28T16:03:09.828Z,6.33
2019-03-28T16:05:37.554Z,5.80
2019-03-28T16:08:05.500Z,6.47
2019-03-28T16:10:32.877Z,6.90
2019-03-28T16:13:00.518Z,5.57
2019-03-28T16:15:30.640Z,5.70
2019-03-28T16:17:59.326Z,5.90
2019-03-28T16:20:26.624Z,5.73
2019-03-28T16:22:55.007Z,5.23
2019-03-28T16:25:24.247Z,6.20
2019-03-28T16:27:54.094Z,6.17
2019-03-28T16:30:32.687Z,6.40
2019-03-28T16:33:02.089Z,6.30
2019-03-28T16:35:30.274Z,6.13
2019-03-28T16:37:59.757Z,6.43
2019-03-28T16:40:27.335Z,6.40
2019-03-28T16:42:54.918Z,6.57
2019-03-28T16:45:22.254Z,6.60
2019-03-28T16:47:51.103Z,6.80
2019-03-28T16:50:18.967Z,6.20
2019-03-28T16:52:48.218Z,5.53
2019-03-28T16:55:26.254Z,4.97
2019-03-28T16:57:49.705Z,6.23
2019-03-28T17:00:18.457Z,6.07
2019-03-28T17:02:46.093Z,6.50
2019-03-28T17:05:25.425Z,6.00
2019-03-28T17:07:53.224Z,5.90
2019-03-28T17:10:51.007Z,6.40
2019-03-28T17:13:18.401Z,6.90
2019-03-28T17:15:46.685Z,5.50
2019-03-28T17:18:14.425Z,7.20
2019-03-28T17:20:44.690Z,5.57
2019-03-28T17:23:12.091Z,5.57
2019-03-28T17:25:39.396Z,5.60
2019-03-28T17:28:06.695Z,5.50
2019-03-28T17:30:34.196Z,5.93
2019-03-28T17:33:01.708Z,6.33
2019-03-28T17:35:31.909Z,4.67
2019-03-28T17:38:01.597Z,4.93
2019-03-28T17:40:28.934Z,5.20
2019-03-28T17:42:58.080Z,4.93
2019-03-28T17:45:25.813Z,5.40
2019-03-28T17:47:53.837Z,4.80
2019-03-28T17:50:22.877Z,4.57
2019-03-28T17:52:50.625Z,5.63
2019-03-28T17:55:19.880Z,4.70
2019-03-28T17:57:47.529Z,3.63
2019-03-28T18:00:14.827Z,4.00
2019-03-28T18:02:42.810Z,4.60
2019-03-28T18:05:15.751Z,3.60
2019-03-28T18:07:42.149Z,3.73
2019-03-28T18:10:09.613Z,4.27
2019-03-28T18:12:39.709Z,3.60
2019-03-28T18:15:08.011Z,3.97
2019-03-28T18:17:37.348Z,4.57
2019-03-28T18:20:05.100Z,4.40
2019-03-28T18:22:32.876Z,4.30
2019-03-28T18:25:02.421Z,4.77
2019-03-28T18:27:37.439Z,4.17
2019-03-28T18:30:05.652Z,5.37
2019-03-28T18:32:34.815Z,5.80
2019-03-28T18:35:05.679Z,5.20
2019-03-28T18:37:32.533Z,6.10
2019-03-28T18:40:03.926Z,6.33
2019-03-28T18:42:29.730Z,7.00
2019-03-28T18:44:57.039Z,6.47
2019-03-28T18:47:26.341Z,6.20
2019-03-28T18:49:53.823Z,7.57
2019-03-28T18:52:21.117Z,6.70
2019-03-28T18:54:48.727Z,7.43
2019-03-28T18:57:16.059Z,7.73
2019-03-28T18:59:43.373Z,7.47
2019-03-28T19:02:10.935Z,6.90
2019-03-28T19:04:38.771Z,7.50
2019-03-28T19:07:10.731Z,6.60
2019-03-28T19:09:39.970Z,7.03
2019-03-28T19:12:07.359Z,7.70
2019-03-28T19:14:37.588Z,7.20
2019-03-28T19:17:04.858Z,7.03
2019-03-28T19:19:39.303Z,6.40
2019-03-28T19:22:01.503Z,8.20
2019-03-28T19:24:28.789Z,7.80
2019-03-28T19:26:56.315Z,7.63
2019-03-28T19:29:24.457Z,7.60
2019-03-28T19:31:51.740Z,7.43
2019-03-28T19:34:21.588Z,7.93
2019-03-28T19:36:49.405Z,7.50
2019-03-28T19:39:26.216Z,8.63
2019-03-28T19:41:53.521Z,8.27
2019-03-28T19:44:20.867Z,7.43
2019-03-28T19:46:48.285Z,7.70
2019-03-28T19:49:15.591Z,7.30
2019-03-28T19:51:47.644Z,6.73
2019-03-28T19:54:15.219Z,6.97
2019-03-28T19:56:42.703Z,7.50
2019-03-28T19:59:10.027Z,6.47
2019-03-28T20:01:37.305Z,6.87
2019-03-28T20:04:05.067Z,6.40
2019-03-28T20:06:33.249Z,5.80
2019-03-28T20:09:00.574Z,6.60
2019-03-28T20:11:27.988Z,7.27
2019-03-28T20:13:57.562Z,6.53
2019-03-28T20:16:25.890Z,6.50
2019-03-28T20:18:53.361Z,7.10
2019-03-28T20:21:20.794Z,6.10
2019-03-28T20:23:48.976Z,5.77
2019-03-28T20:26:19.519Z,6.50
2019-03-28T20:28:46.209Z,6.30
2019-03-28T20:31:13.601Z,6.00
2019-03-28T20:33:41.006Z,6.70
2019-03-28T20:36:35.669Z,6.20
2019-03-28T20:38:37.680Z,5.60
2019-03-28T20:41:05.557Z,5.63
2019-03-28T20:43:32.845Z,5.70
2019-03-28T20:46:00.227Z,6.07
2019-03-28T20:48:27.576Z,5.90
2019-03-28T20:50:54.992Z,6.10
2019-03-28T20:53:22.503Z,5.87
2019-03-28T20:55:49.899Z,6.23
2019-03-28T20:58:18.590Z,5.60
2019-03-28T21:00:46.554Z,5.73
2019-03-28T21:03:15.036Z,5.53
2019-03-28T21:05:42.889Z,5.40
2019-03-28T21:08:13.201Z,5.80
2019-03-28T21:10:40.555Z,5.17
2019-03-28T21:13:07.898Z,5.70
2019-03-28T21:15:37.720Z,5.60
2019-03-28T21:18:07.104Z,6.00
2019-03-28T21:20:34.499Z,6.13
2019-03-28T21:23:05.043Z,5.67
2019-03-28T21:25:31.349Z,5.77
2019-03-28T21:28:00.411Z,5.47
2019-03-28T21:30:28.545Z,5.47
2019-03-28T21:32:57.747Z,5.30
2019-03-28T21:35:25.558Z,4.30
2019-03-28T21:37:52.948Z,4.33
2019-03-28T21:40:20.266Z,4.03
2019-03-28T21:42:48.134Z,4.13
2019-03-28T21:45:16.346Z,4.13
2019-03-28T21:47:43.839Z,4.50
2019-03-28T21:50:11.299Z,4.13
2019-03-28T21:52:39.120Z,4.40
2019-03-28T21:55:06.599Z,4.50
2019-03-28T21:57:33.880Z,4.67
2019-03-28T22:00:01.202Z,3.77
2019-03-28T22:02:28.451Z,4.30
2019-03-28T22:04:55.846Z,4.50
2019-03-28T22:07:23.245Z,3.90
2019-03-28T22:09:51.164Z,4.20
2019-03-28T22:12:18.790Z,3.80
2019-03-28T22:14:48.179Z,3.40
2019-03-28T22:17:15.876Z,4.03
2019-03-28T22:19:43.381Z,4.17
2019-03-28T22:22:11.137Z,4.07
2019-03-28T22:24:39.244Z,3.80
2019-03-28T22:27:06.903Z,3.63
2019-03-28T22:29:34.718Z,3.60
2019-03-28T22:32:02.028Z,4.30
2019-03-28T22:34:29.315Z,4.13
2019-03-28T22:36:59.409Z,4.47
2019-03-28T22:39:25.850Z,4.17
2019-03-28T22:41:53.141Z,4.10
2019-03-28T22:44:20.628Z,6.30
2019-03-28T22:46:49.099Z,6.10
2019-03-28T22:49:16.880Z,6.40
2019-03-28T22:51:44.170Z,5.47
2019-03-28T22:54:11.474Z,4.10
2019-03-28T22:56:39.126Z,3.60
2019-03-28T22:59:06.388Z,3.50
2019-03-28T23:01:33.723Z,3.70
2019-03-28T23:04:01.006Z,3.63
2019-03-28T23:06:28.288Z,3.50
2019-03-28T23:08:55.598Z,3.47
2019-03-28T23:11:22.916Z,3.27
2019-03-28T23:13:50.290Z,3.87
2019-03-28T23:16:20.662Z,4.63
2019-03-28T23:18:47.994Z,4.00
2019-03-28T23:21:15.941Z,4.10
2019-03-28T23:23:43.624Z,5.03
2019-03-28T23:26:11.100Z,4.23
2019-03-28T23:28:38.515Z,4.37
2019-03-28T23:31:08.978Z,4.10
2019-03-28T23:33:36.619Z,4.50
2019-03-28T23:36:03.895Z,4.13
2019-03-28T23:38:31.332Z,3.70
2019-03-28T23:41:01.630Z,4.50
2019-03-28T23:43:28.905Z,4.07
2019-03-28T23:45:56.176Z,4.30
2019-03-28T23:48:23.452Z,4.47
2019-03-28T23:50:51.705Z,5.50
2019-03-28T23:53:19.351Z,4.67
2019-03-28T23:55:46.726Z,4.13
2019-03-28T23:58:13.987Z,4.43
